Mindenmines, MO (64769)

10:16 PM CDT on July 12, 2014 (GMT -0500)
Frontenac Schools (KKSFRONT8) Elev 950 ft | 37.45 °N, 94.69 °W | Change Station

Current weather conditions updated 5 seconds ago

Clear
Clear
82.6 °F
Feels Like 86 °F
N
5.0
Wind Variable Wind from South
Gusts 6.0 mph

Tomorrow is forecast to be Cooler than today.

Today
High -- | Low -- °F
--% Chance of Precip.
Yesterday
High -- | Low -- °F
Precip. -- in
6:07 AM 8:40 PM
Full, 99% visible
Pressure 30.03 in
Visibility 10.0 miles
Clouds Clear
Heat Index 86 °F
Dew Point 68 °F
Humidity 62%
Rainfall 0.00 in
Snow Depth Not available.
UV 0 out of 12
Pollen 4.50 out of 12
Air Quality Not available.
Flu Activity Sporadic
METAR KPTS 130255Z AUTO 20006KT 10SM CLR 28/20 A3003 RMK AO2 T02750204

More Conditions Fewer Conditions

Pressure 30.03 in
Visibility 10.0 miles
Clouds Clear
Heat Index 86 °F
Dew Point 68 °F
Humidity 62%
Rainfall 0.00 in
Snow Depth Not available.
UV 0 out of 12
Pollen 4.50 out of 12
Air Quality Not available.
Flu Activity Sporadic
METAR KPTS 130255Z AUTO 20006KT 10SM CLR 28/20 A3003 RMK AO2 T02750204

More Conditions Fewer Conditions

10-Day Weather Forecast

Almanac

Astronomy

Jul. 12, 2014 Rise Set
Actual Time 6:07 AM CDT 8:40 PM CDT
Civil Twilight 5:36 AM CDT 9:10 PM CDT
Nautical Twilight 4:59 AM CDT 9:48 PM CDT
Astronomical Twilight 4:17 AM CDT 10:30 PM CDT
Moon 8:45 PM CDT (7/12) 6:25 AM CDT (7/12)
Length of Visible Light 15h 33m
Length of Day
14h 32m
Tomorrow will be 1m 6s shorter.
Full, 99% of the Moon is Illuminated
Today
Full
Jul 18
Last Quarter
Jul 26
New
Aug 3
First Quarter
Aug 10
Full

Today's Extremes

State Highs State Lows

Community

WunderPhotos

Upload Photos

1,733,065 photos uploaded!

WunderBlogs® & News

Nearby

Snow Depth

Station Depth Elevation
No new snow has been reported.

Earthquake Activity

City Distance Mag. Time & Date
No recent earthquake activity has been reported nearby.
Minimum magnitude displayed is 2.5.

Coastal Water Temperatures

Place Temperature
No Stations Reporting

Nearby Weather Stations

Station Location Temp. Heat Index Dew Point Humidity Wind Precip. Elev Updated Type
Frontenac Schools, Frontenac, KS 82.6 °F 86 °F 68 °F 62% South  at  5.0 mph 0.00 in / hr 950 ft 10:16 PM CDT Rapid Fire
Frontenac KS, Frontenac, KS 82.3 °F 85 °F 67 °F 60% South  at  2.5 mph 0.00 in / hr 948 ft 10:16 PM CDT Rapid Fire
Frontenac, KS 83.0 °F 87 °F 70 °F 66% SSE  at  1.4 mph 0.00 in / hr 942 ft 10:16 PM CDT Rapid Fire
Southwest Pittsburg, Kansas, Pittsburg, KS 84.0 °F 89 °F 68 °F 64% North  at  - - / hr 935 ft 10:05 PM CDT Normal
Frontenac Industrial Park, Frontenac, KS 81.0 °F 79 °F 22 °F 11% East  at  0.0 mph 0.00 in / hr 965 ft 10:16 PM CDT Rapid Fire
Irwin, MO, Lamar, MO 79.8 °F 82 °F 68 °F 67% SSW  at  3.0 mph 0.00 in / hr 955 ft 10:15 PM CDT Normal
ESE Cherokee Co Kansas, Columbus, KS 80.6 °F 84 °F 70 °F 71% SE  at  2.0 mph 0.00 in / hr 951 ft 10:08 PM CDT Normal

Show More Stations Show Fewer Stations